Time;durP1;ratioP1;P1;durP2;ratioP2;P2;SDS_P1;SDS_P2;PMS_P1;PMS_P2;Temp;Humidity;BMP_temperature;BMP_pressure;BME280_temperature;BME280_humidity;BME280_pressure;Samples;Min_cycle;Max_cycle;Signal;HPM_P1;HPM_P2
2023/10/20 03:31:37;;;;;;;5.70;3.97;;;12.90;99.90;;;;;;5597565;23;20946;-68
2023/10/20 03:34:05;;;;;;;4.37;3.97;;;12.90;99.90;;;;;;4992337;28;20503;-69
2023/10/20 03:36:32;;;;;;;3.87;3.53;;;12.90;99.90;;;;;;4994049;28;20464;-68
2023/10/20 03:38:58;;;;;;;6.18;4.35;;;12.90;99.90;;;;;;4994839;28;20479;-69
2023/10/20 03:41:25;;;;;;;5.40;3.93;;;12.90;99.90;;;;;;4995835;28;20239;-68
2023/10/20 03:43:53;;;;;;;4.80;3.80;;;12.90;99.90;;;;;;5004729;28;20483;-69
2023/10/20 03:46:20;;;;;;;4.23;3.67;;;12.80;99.90;;;;;;5002688;28;20474;-69
2023/10/20 03:48:48;;;;;;;4.67;4.27;;;12.90;99.90;;;;;;5005057;28;20468;-69
2023/10/20 03:51:16;;;;;;;3.90;3.50;;;12.90;99.90;;;;;;5010275;28;20492;-68
2023/10/20 03:53:52;;;;;;;4.78;4.28;;;12.90;99.90;;;;;;5006032;28;20877;-69
2023/10/20 03:56:22;;;;;;;4.53;4.10;;;12.90;99.90;;;;;;5008561;28;20209;-69
2023/10/20 03:58:48;;;;;;;6.07;4.13;;;12.80;99.90;;;;;;5006918;28;20989;-69
2023/10/20 04:01:15;;;;;;;5.80;4.80;;;12.80;99.90;;;;;;5008929;28;20495;-69
2023/10/20 04:03:49;;;;;;;4.90;4.50;;;12.80;99.90;;;;;;5006293;28;20206;-69
2023/10/20 04:06:18;;;;;;;6.23;4.50;;;12.80;99.90;;;;;;5008533;28;20473;-69
2023/10/20 04:08:47;;;;;;;3.87;3.43;;;12.80;99.90;;;;;;5007563;28;20464;-69
2023/10/20 04:11:14;;;;;;;6.07;4.20;;;12.80;99.90;;;;;;5007071;28;20862;-69
2023/10/20 04:13:41;;;;;;;5.80;4.23;;;12.80;99.90;;;;;;5007895;28;20461;-69
2023/10/20 04:16:12;;;;;;;8.52;4.70;;;12.80;99.90;;;;;;5005320;28;20954;-69
2023/10/20 04:18:40;;;;;;;7.10;4.85;;;12.80;99.90;;;;;;5007803;28;20202;-68
2023/10/20 04:21:07;;;;;;;5.50;4.37;;;12.80;99.90;;;;;;5006141;28;20281;-68
2023/10/20 04:23:36;;;;;;;4.30;3.77;;;12.80;99.90;;;;;;5008745;28;20465;-68
2023/10/20 04:26:15;;;;;;;5.80;4.78;;;12.80;99.90;;;;;;5008223;28;20559;-69
2023/10/20 04:28:43;;;;;;;4.85;4.38;;;12.80;99.90;;;;;;5008715;28;20299;-68
2023/10/20 04:50:48;;;;;;;6.80;5.03;;;12.70;99.90;;;;;;5005236;28;20971;-68
2023/10/20 04:53:31;;;;;;;6.10;4.53;;;12.70;99.90;;;;;;5006735;28;20461;-68
2023/10/20 04:56:30;;;;;;;4.90;4.07;;;12.60;99.90;;;;;;5000218;28;20489;-68
2023/10/20 04:59:04;;;;;;;6.30;4.40;;;12.70;99.90;;;;;;5000821;28;20469;-69
2023/10/20 05:01:41;;;;;;;5.05;4.50;;;12.70;99.90;;;;;;5000841;28;21308;-68
2023/10/20 05:04:14;;;;;;;5.20;4.60;;;12.70;99.90;;;;;;5002010;28;20214;-68
2023/10/20 05:06:43;;;;;;;4.63;4.00;;;12.70;99.90;;;;;;5006305;28;20578;-69
2023/10/20 05:09:13;;;;;;;5.67;4.27;;;12.70;99.90;;;;;;5002362;28;20842;-67
2023/10/20 05:11:42;;;;;;;5.13;4.47;;;12.70;99.90;;;;;;5002536;28;20550;-68
2023/10/20 05:14:10;;;;;;;5.35;4.63;;;12.60;99.90;;;;;;5006098;28;20214;-68
2023/10/20 05:16:36;;;;;;;7.88;4.78;;;12.60;99.90;;;;;;5002639;28;20229;-68
2023/10/20 05:19:05;;;;;;;5.27;4.77;;;12.60;99.90;;;;;;5001236;28;20241;-70
2023/10/20 05:21:38;;;;;;;6.25;5.63;;;12.60;99.90;;;;;;5004240;28;20542;-69
2023/10/20 05:24:08;;;;;;;6.43;4.43;;;12.60;99.90;;;;;;5003587;28;20311;-68
2023/10/20 05:26:39;;;;;;;5.68;4.18;;;12.60;99.90;;;;;;5002826;28;20464;-68
2023/10/20 05:29:07;;;;;;;4.05;3.75;;;12.60;99.90;;;;;;5002153;28;20217;-68
2023/10/20 05:31:34;;;;;;;7.23;5.00;;;12.60;99.90;;;;;;5003738;28;20229;-69
2023/10/20 05:34:02;;;;;;;5.40;4.63;;;12.60;99.90;;;;;;5000809;28;20474;-68
2023/10/20 05:36:28;;;;;;;5.67;5.17;;;12.60;99.90;;;;;;5004218;28;20464;-69
2023/10/20 05:38:56;;;;;;;5.97;4.87;;;12.60;99.90;;;;;;5002342;28;20474;-69
2023/10/20 05:41:24;;;;;;;5.90;5.30;;;12.50;99.90;;;;;;5008039;28;20992;-69
2023/10/20 05:43:55;;;;;;;16.30;6.40;;;12.50;99.90;;;;;;5001991;28;20471;-70
2023/10/20 05:46:25;;;;;;;6.50;5.03;;;12.50;99.90;;;;;;5014522;28;20292;-70
2023/10/20 05:51:21;;;;;;;5.33;4.20;;;12.40;99.90;;;;;;4994450;28;20240;-69
2023/10/20 05:53:48;;;;;;;5.85;4.78;;;12.40;99.90;;;;;;4997533;28;20461;-69
2023/10/20 05:56:15;;;;;;;6.47;5.13;;;12.40;99.90;;;;;;5001044;28;20256;-70
2023/10/20 05:58:42;;;;;;;6.72;4.40;;;12.30;99.90;;;;;;4999899;28;20207;-70
2023/10/20 06:01:10;;;;;;;5.37;4.60;;;12.40;99.90;;;;;;4994901;28;20305;-70
2023/10/20 06:03:38;;;;;;;5.05;4.55;;;12.40;99.90;;;;;;5000183;28;20519;-70
2023/10/20 06:06:05;;;;;;;5.40;4.90;;;12.40;99.90;;;;;;5001747;28;20264;-70
2023/10/20 06:08:32;;;;;;;5.70;4.72;;;12.40;99.90;;;;;;4997468;28;20209;-69
2023/10/20 06:11:03;;;;;;;5.63;5.03;;;12.40;99.90;;;;;;4999058;28;20715;-70
2023/10/20 06:13:30;;;;;;;5.15;3.92;;;12.40;99.90;;;;;;4998950;28;20253;-69
2023/10/20 06:15:59;;;;;;;4.90;4.40;;;12.40;99.90;;;;;;4999223;28;20230;-70
2023/10/20 06:18:27;;;;;;;4.93;4.20;;;12.40;99.90;;;;;;4999739;28;20461;-70
2023/10/20 06:20:55;;;;;;;4.85;4.05;;;12.40;99.90;;;;;;4995994;28;20485;-70
2023/10/20 06:23:23;;;;;;;5.67;4.30;;;12.30;99.90;;;;;;4993178;28;20275;-69
2023/10/20 06:25:50;;;;;;;4.93;4.33;;;12.40;99.90;;;;;;4992434;28;20457;-70
2023/10/20 06:28:17;;;;;;;5.43;4.63;;;12.40;99.90;;;;;;5001331;28;20512;-70
2023/10/20 06:30:45;;;;;;;5.60;5.07;;;12.30;99.90;;;;;;4991950;28;20493;-70
2023/10/20 06:33:18;;;;;;;5.80;4.60;;;12.30;99.90;;;;;;4992101;28;20465;-71
2023/10/20 06:35:59;;;;;;;7.10;4.70;;;12.30;99.90;;;;;;4990500;28;20581;-69
2023/10/20 06:38:34;;;;;;;17.23;4.93;;;12.30;99.90;;;;;;4995435;28;20518;-69
2023/10/20 06:41:01;;;;;;;6.33;4.80;;;12.30;99.90;;;;;;4991238;28;20487;-69
2023/10/20 06:43:30;;;;;;;5.80;5.20;;;12.30;99.90;;;;;;4991948;28;21158;-70
2023/10/20 06:45:58;;;;;;;6.50;4.80;;;12.30;99.90;;;;;;4989773;28;21004;-71
2023/10/20 06:48:24;;;;;;;6.30;5.23;;;12.30;99.90;;;;;;5003611;28;20492;-70
2023/10/20 06:50:51;;;;;;;6.73;4.33;;;12.30;99.90;;;;;;4995828;28;20493;-70
2023/10/20 06:53:18;;;;;;;6.53;5.20;;;12.30;99.90;;;;;;4994259;28;20465;-70
2023/10/20 06:55:48;;;;;;;6.60;4.70;;;12.40;99.90;;;;;;4999872;28;20863;-70
2023/10/20 06:58:17;;;;;;;6.60;4.80;;;12.40;99.90;;;;;;5003243;28;20471;-70
2023/10/20 07:00:44;;;;;;;5.57;5.07;;;12.40;99.90;;;;;;4996578;28;20571;-70
2023/10/20 07:03:11;;;;;;;5.73;5.20;;;12.40;99.90;;;;;;4991835;28;20473;-70
2023/10/20 07:05:38;;;;;;;5.30;4.80;;;12.40;99.90;;;;;;4995484;28;20484;-70
2023/10/20 07:08:06;;;;;;;5.97;5.30;;;12.40;99.90;;;;;;4994606;28;20476;-69
2023/10/20 07:10:37;;;;;;;5.40;4.63;;;12.40;99.90;;;;;;4998474;28;20490;-70
2023/10/20 07:13:08;;;;;;;4.77;4.27;;;12.40;99.90;;;;;;4991420;28;20206;-70
2023/10/20 07:15:35;;;;;;;5.40;4.87;;;12.40;99.90;;;;;;4991471;28;20556;-70
2023/10/20 07:18:01;;;;;;;6.90;4.87;;;12.50;99.90;;;;;;4991363;28;20472;-70
2023/10/20 07:20:29;;;;;;;7.57;4.90;;;12.50;99.90;;;;;;4991687;28;20470;-70
2023/10/20 07:22:55;;;;;;;6.47;5.57;;;12.50;99.90;;;;;;4991272;28;20461;-70
2023/10/20 07:25:22;;;;;;;5.20;4.70;;;12.50;99.90;;;;;;4991506;28;20458;-70
2023/10/20 07:27:49;;;;;;;6.23;5.50;;;12.60;99.90;;;;;;4991572;28;20532;-70
2023/10/20 07:30:17;;;;;;;6.03;4.67;;;12.60;99.90;;;;;;4991398;28;20459;-70
2023/10/20 07:32:44;;;;;;;14.53;5.17;;;12.60;99.90;;;;;;4991516;28;20496;-70
2023/10/20 07:35:12;;;;;;;5.87;4.57;;;12.70;99.90;;;;;;4991175;28;20493;-70
2023/10/20 07:37:39;;;;;;;6.83;5.47;;;12.70;99.90;;;;;;4991513;28;20528;-70
2023/10/20 07:40:08;;;;;;;7.43;5.27;;;12.70;99.90;;;;;;5007165;28;20457;-70
2023/10/20 07:42:35;;;;;;;6.60;5.33;;;12.70;99.90;;;;;;4991652;28;20544;-70
2023/10/20 07:45:02;;;;;;;7.00;5.13;;;12.70;99.90;;;;;;4990508;28;20493;-70
2023/10/20 07:47:30;;;;;;;5.80;5.20;;;12.80;99.90;;;;;;4991563;28;20465;-70
2023/10/20 07:49:58;;;;;;;6.07;5.47;;;12.80;99.90;;;;;;4991188;28;20496;-70
2023/10/20 07:52:25;;;;;;;10.57;6.13;;;12.80;99.90;;;;;;4991581;28;21013;-70
2023/10/20 07:54:51;;;;;;;6.63;5.20;;;12.90;99.90;;;;;;4990950;28;20462;-70
2023/10/20 07:57:20;;;;;;;5.53;4.70;;;12.90;99.90;;;;;;4991241;28;20679;-70
2023/10/20 07:59:47;;;;;;;6.73;5.57;;;12.90;99.90;;;;;;4991101;28;20463;-70
2023/10/20 08:02:14;;;;;;;6.50;5.37;;;13.00;99.90;;;;;;4991141;28;20492;-70
2023/10/20 08:04:42;;;;;;;9.43;6.00;;;13.00;99.90;;;;;;4991067;28;20471;-70
2023/10/20 08:07:09;;;;;;;6.77;5.60;;;13.00;99.90;;;;;;4991031;28;20877;-70
2023/10/20 08:09:36;;;;;;;6.97;5.60;;;13.00;99.90;;;;;;4991217;28;20487;-70
2023/10/20 08:12:03;;;;;;;5.67;4.97;;;13.10;99.90;;;;;;4991701;28;20485;-70
2023/10/20 08:14:30;;;;;;;9.27;6.10;;;13.10;99.90;;;;;;4994366;28;20481;-69
2023/10/20 08:16:57;;;;;;;5.70;4.90;;;13.20;99.90;;;;;;4994063;28;20492;-70
2023/10/20 08:19:25;;;;;;;7.43;5.87;;;13.10;99.90;;;;;;4994701;28;20520;-70
2023/10/20 08:21:53;;;;;;;5.60;5.00;;;13.20;99.90;;;;;;4994304;28;20540;-70
2023/10/20 08:24:19;;;;;;;8.63;6.23;;;13.20;99.90;;;;;;4994322;28;20989;-70
2023/10/20 08:26:46;;;;;;;6.87;5.30;;;13.20;99.90;;;;;;4999810;28;20466;-70
2023/10/20 08:29:13;;;;;;;6.47;5.37;;;13.30;99.90;;;;;;4993958;28;20465;-69
2023/10/20 08:31:40;;;;;;;7.00;5.57;;;13.30;99.90;;;;;;4994682;28;20958;-70
2023/10/20 08:34:07;;;;;;;7.17;5.73;;;13.30;99.90;;;;;;4993948;28;20493;-69
2023/10/20 08:36:33;;;;;;;6.77;5.17;;;13.40;99.90;;;;;;4994082;28;20580;-69
2023/10/20 08:39:12;;;;;;;11.87;6.37;;;13.50;99.90;;;;;;4993867;28;20462;-69
2023/10/20 08:41:41;;;;;;;7.13;6.40;;;13.50;99.90;;;;;;4994541;28;20484;-70
2023/10/20 08:44:08;;;;;;;6.63;5.77;;;13.60;99.90;;;;;;4993626;28;20473;-69
2023/10/20 08:46:36;;;;;;;8.20;5.93;;;13.70;99.90;;;;;;4994080;28;20461;-70
2023/10/20 08:49:03;;;;;;;8.73;6.10;;;13.80;99.90;;;;;;4993318;28;20542;-69
2023/10/20 08:51:31;;;;;;;8.50;6.90;;;13.90;99.90;;;;;;4993845;28;20482;-70
2023/10/20 08:53:58;;;;;;;7.87;6.43;;;13.90;99.90;;;;;;4993821;28;20474;-69
2023/10/20 08:56:26;;;;;;;6.47;5.60;;;13.90;99.90;;;;;;4993900;28;20494;-70
2023/10/20 08:58:53;;;;;;;6.90;5.17;;;13.90;99.90;;;;;;4993826;28;20466;-69
2023/10/20 09:01:20;;;;;;;6.77;5.13;;;13.80;99.90;;;;;;4993658;28;20493;-70
2023/10/20 09:03:49;;;;;;;7.57;4.87;;;13.90;99.90;;;;;;4993722;28;20465;-70
2023/10/20 09:06:16;;;;;;;6.90;5.27;;;13.90;99.90;;;;;;4993213;28;20942;-70
2023/10/20 09:08:43;;;;;;;6.67;5.87;;;13.90;99.90;;;;;;4994001;28;20462;-70
2023/10/20 09:11:11;;;;;;;7.63;5.60;;;14.00;99.90;;;;;;4993372;28;20510;-70
2023/10/20 09:13:41;;;;;;;6.90;4.83;;;14.00;99.90;;;;;;4993594;28;20473;-70
2023/10/20 09:16:11;;;;;;;7.30;5.70;;;14.00;99.90;;;;;;4992989;28;20486;-70
2023/10/20 09:18:48;;;;;;;5.20;4.70;;;14.00;99.90;;;;;;4993585;28;20961;-70
2023/10/20 09:21:16;;;;;;;6.03;5.23;;;14.10;99.90;;;;;;4992789;28;20481;-70
2023/10/20 09:23:55;;;;;;;7.20;5.03;;;14.00;99.90;;;;;;4993302;28;20474;-70
2023/10/20 09:26:21;;;;;;;5.63;5.03;;;14.10;99.90;;;;;;4993102;28;20524;-70
2023/10/20 09:28:50;;;;;;;5.63;4.20;;;14.10;99.90;;;;;;4993294;28;20523;-70
2023/10/20 09:31:19;;;;;;;5.57;4.60;;;14.10;99.90;;;;;;4992898;28;20482;-70
2023/10/20 09:33:46;;;;;;;5.03;4.37;;;14.10;99.90;;;;;;4993388;28;20458;-70
2023/10/20 09:36:13;;;;;;;9.07;4.90;;;14.10;99.90;;;;;;4992587;28;20894;-70
2023/10/20 09:38:39;;;;;;;5.83;4.83;;;14.10;99.90;;;;;;4993472;28;20473;-70
2023/10/20 09:41:12;;;;;;;5.30;4.80;;;14.20;99.90;;;;;;4992783;28;20900;-70
2023/10/20 09:43:48;;;;;;;6.17;4.50;;;14.40;99.90;;;;;;4992915;28;20489;-70
2023/10/20 09:46:26;;;;;;;5.23;4.43;;;14.60;99.90;;;;;;4992505;28;20493;-70
2023/10/20 09:48:54;;;;;;;4.80;4.30;;;14.60;99.90;;;;;;4993166;28;20590;-70
2023/10/20 09:51:22;;;;;;;4.57;4.17;;;14.70;99.90;;;;;;4992601;28;20987;-70
2023/10/20 09:53:50;;;;;;;4.40;3.90;;;14.80;99.90;;;;;;4992627;28;20462;-69
2023/10/20 09:56:18;;;;;;;4.30;3.90;;;14.80;99.90;;;;;;4992307;28;20494;-70
2023/10/20 09:58:45;;;;;;;4.00;3.43;;;14.90;99.90;;;;;;4992660;28;20462;-69
2023/10/20 10:01:14;;;;;;;3.90;3.33;;;14.90;99.90;;;;;;5000532;28;20477;-70
2023/10/20 10:03:48;;;;;;;3.83;3.50;;;15.00;99.90;;;;;;4992742;28;20470;-69
2023/10/20 10:06:16;;;;;;;7.13;3.63;;;15.00;99.90;;;;;;4992331;28;20456;-69
2023/10/20 10:08:44;;;;;;;4.07;3.50;;;15.00;99.90;;;;;;4992676;28;20467;-70
2023/10/20 10:11:26;;;;;;;4.40;3.43;;;15.00;99.90;;;;;;4992228;28;20483;-70
2023/10/20 10:13:54;;;;;;;4.20;3.80;;;15.00;99.90;;;;;;4992417;28;20484;-70
2023/10/20 10:16:21;;;;;;;3.27;2.97;;;15.00;99.90;;;;;;4992456;28;20490;-71
2023/10/20 10:18:50;;;;;;;3.57;3.00;;;14.90;99.90;;;;;;4992726;28;20462;-70
2023/10/20 10:21:28;;;;;;;4.47;3.50;;;15.00;99.90;;;;;;4991885;28;20877;-70
2023/10/20 10:24:17;;;;;;;3.17;2.87;;;15.00;99.90;;;;;;4993409;28;20459;-69
2023/10/20 10:26:52;;;;;;;4.57;2.70;;;15.10;99.90;;;;;;4992026;28;20451;-70
2023/10/20 10:29:49;;;;;;;2.20;2.00;;;15.10;99.90;;;;;;4991919;28;20462;-70
2023/10/20 10:32:18;;;;;;;3.10;2.10;;;15.20;99.90;;;;;;4992502;28;20474;-69
2023/10/20 10:34:47;;;;;;;2.10;1.90;;;15.30;99.90;;;;;;4991506;28;20459;-70
2023/10/20 10:37:15;;;;;;;2.90;2.33;;;15.40;99.90;;;;;;4992204;28;20486;-70
2023/10/20 10:39:42;;;;;;;2.13;1.93;;;15.40;99.90;;;;;;4992025;28;20466;-70
2023/10/20 10:42:11;;;;;;;1.97;1.77;;;15.40;99.90;;;;;;4991677;28;20493;-70
2023/10/20 10:44:38;;;;;;;2.20;2.00;;;15.50;99.90;;;;;;4991861;28;20518;-70
2023/10/20 10:47:06;;;;;;;2.03;1.90;;;15.50;99.90;;;;;;4993096;28;20832;-70
2023/10/20 10:49:33;;;;;;;1.50;1.30;;;15.50;99.90;;;;;;4991753;28;20478;-70
2023/10/20 10:52:07;;;;;;;2.80;1.50;;;15.50;99.90;;;;;;4991935;28;20491;-70
2023/10/20 10:54:34;;;;;;;1.97;1.77;;;15.50;99.90;;;;;;4992109;28;20522;-70
2023/10/20 10:57:01;;;;;;;1.83;1.63;;;15.50;99.90;;;;;;4991441;28;20573;-70
2023/10/20 10:59:28;;;;;;;1.53;1.43;;;15.50;99.90;;;;;;4991613;28;20985;-70
2023/10/20 11:01:56;;;;;;;1.50;1.40;;;15.60;99.90;;;;;;4992007;28;20651;-70
2023/10/20 11:04:23;;;;;;;1.10;1.00;;;15.60;99.90;;;;;;4991869;28;20859;-70
2023/10/20 11:06:50;;;;;;;1.10;0.90;;;15.60;99.90;;;;;;4991921;28;20491;-70
2023/10/20 11:09:22;;;;;;;1.00;0.80;;;15.60;99.90;;;;;;4991480;28;20473;-70
2023/10/20 11:11:49;;;;;;;1.00;0.90;;;15.60;99.90;;;;;;4991728;28;20528;-70
2023/10/20 11:14:18;;;;;;;1.27;0.90;;;15.60;99.90;;;;;;4991351;28;20843;-70
2023/10/20 11:16:46;;;;;;;1.30;0.90;;;15.60;99.90;;;;;;4991774;28;20494;-70
2023/10/20 11:19:13;;;;;;;1.23;1.00;;;15.60;99.90;;;;;;4991375;28;20462;-70
2023/10/20 11:21:47;;;;;;;1.30;1.20;;;15.60;99.90;;;;;;4992218;28;21015;-70
2023/10/20 11:24:26;;;;;;;1.07;0.97;;;15.60;99.90;;;;;;4991458;28;20468;-69
2023/10/20 11:26:58;;;;;;;1.10;0.90;;;15.60;99.90;;;;;;4991469;28;20845;-70
2023/10/20 11:29:29;;;;;;;1.77;1.10;;;15.60;99.90;;;;;;4991348;28;20474;-70
2023/10/20 11:31:57;;;;;;;1.00;0.90;;;15.60;99.90;;;;;;4991638;28;21012;-70
2023/10/20 11:34:24;;;;;;;1.70;1.30;;;15.60;99.90;;;;;;4991106;28;20472;-69
2023/10/20 11:36:51;;;;;;;2.67;1.30;;;15.60;99.90;;;;;;4991374;28;20497;-69
2023/10/20 11:39:21;;;;;;;1.63;1.50;;;15.60;99.90;;;;;;4991135;28;20470;-70
2023/10/20 11:41:49;;;;;;;2.83;1.57;;;15.60;99.90;;;;;;4991239;28;20474;-69
2023/10/20 11:44:16;;;;;;;2.13;1.07;;;15.70;99.90;;;;;;4991198;28;20955;-70
2023/10/20 11:46:43;;;;;;;0.93;0.83;;;15.70;99.90;;;;;;4991706;28;20457;-70
2023/10/20 11:49:10;;;;;;;1.13;0.87;;;15.70;99.90;;;;;;4994728;28;20541;-69
2023/10/20 11:51:37;;;;;;;1.17;0.80;;;15.70;99.90;;;;;;4995345;28;20477;-70
2023/10/20 11:54:05;;;;;;;0.90;0.70;;;15.70;99.90;;;;;;4994908;28;20473;-70
2023/10/20 11:56:31;;;;;;;0.90;0.80;;;15.70;99.90;;;;;;4994812;28;21014;-69
2023/10/20 11:58:59;;;;;;;0.90;0.70;;;15.70;99.90;;;;;;4995096;28;20522;-69
2023/10/20 12:01:26;;;;;;;0.97;0.87;;;15.70;99.90;;;;;;4994572;28;20513;-70
2023/10/20 12:03:53;;;;;;;0.90;0.70;;;15.70;99.90;;;;;;4995020;28;20459;-70
2023/10/20 12:06:19;;;;;;;1.80;0.97;;;15.70;99.90;;;;;;5002769;28;20463;-70
2023/10/20 12:08:46;;;;;;;0.80;0.70;;;15.80;99.90;;;;;;4994997;28;20850;-70
2023/10/20 12:11:13;;;;;;;3.00;0.83;;;15.80;99.90;;;;;;4994361;28;20960;-70
2023/10/20 12:13:46;;;;;;;0.90;0.73;;;15.70;99.90;;;;;;4994694;28;20455;-70
2023/10/20 12:16:14;;;;;;;0.90;0.70;;;15.80;99.90;;;;;;4994355;28;20954;-69
2023/10/20 12:18:42;;;;;;;3.20;1.60;;;15.70;99.90;;;;;;4994691;28;20485;-70
2023/10/20 12:21:08;;;;;;;0.87;0.70;;;15.80;99.90;;;;;;4994584;28;20494;-69
2023/10/20 12:23:36;;;;;;;0.80;0.60;;;15.80;99.90;;;;;;4994763;28;20462;-69
2023/10/20 12:26:03;;;;;;;0.90;0.80;;;15.80;99.90;;;;;;4994433;28;20496;-70
2023/10/20 12:28:31;;;;;;;1.00;0.80;;;15.90;99.90;;;;;;4994368;28;20459;-70
2023/10/20 12:30:57;;;;;;;1.00;0.73;;;16.00;99.90;;;;;;4994864;28;20487;-69
2023/10/20 12:33:26;;;;;;;1.07;0.80;;;16.20;99.90;;;;;;5001944;28;20470;-70
2023/10/20 12:35:54;;;;;;;0.80;0.67;;;16.40;99.90;;;;;;4994173;28;20459;-69
2023/10/20 12:38:21;;;;;;;0.80;0.70;;;16.50;99.90;;;;;;4994187;28;20988;-69
2023/10/20 12:40:48;;;;;;;0.90;0.73;;;16.70;99.90;;;;;;4994327;28;20483;-69
2023/10/20 12:43:15;;;;;;;0.80;0.70;;;16.70;99.90;;;;;;4994873;28;20517;-69
2023/10/20 12:45:42;;;;;;;0.80;0.70;;;16.70;99.90;;;;;;4994047;28;20971;-69
2023/10/20 12:48:09;;;;;;;1.10;0.80;;;16.70;99.90;;;;;;5001841;28;20462;-69
2023/10/20 12:50:38;;;;;;;0.80;0.63;;;16.60;99.90;;;;;;4993714;28;21021;-69
2023/10/20 12:53:07;;;;;;;0.97;0.83;;;16.60;99.90;;;;;;4994151;28;20459;-69
2023/10/20 12:55:35;;;;;;;0.80;0.60;;;16.50;99.90;;;;;;4993410;28;20473;-69
2023/10/20 12:58:03;;;;;;;1.10;0.80;;;16.60;99.90;;;;;;4993691;28;20496;-69
2023/10/20 13:00:29;;;;;;;0.80;0.60;;;16.70;99.90;;;;;;4993816;28;20975;-69
2023/10/20 13:02:56;;;;;;;0.90;0.70;;;16.60;99.90;;;;;;5000242;28;20460;-69
2023/10/20 13:05:23;;;;;;;0.80;0.60;;;16.60;99.90;;;;;;4993418;28;20474;-69
2023/10/20 13:07:51;;;;;;;1.20;0.97;;;16.60;99.90;;;;;;4993510;28;21021;-69
2023/10/20 13:10:18;;;;;;;0.97;0.67;;;16.60;99.90;;;;;;4993264;28;20467;-69
2023/10/20 13:12:45;;;;;;;0.90;0.80;;;16.60;99.90;;;;;;4993689;28;20460;-69
2023/10/20 13:15:13;;;;;;;1.00;0.80;;;16.60;99.90;;;;;;4993386;28;20468;-69
2023/10/20 13:17:40;;;;;;;1.30;0.70;;;16.70;99.90;;;;;;4993616;28;20868;-69
2023/10/20 13:20:08;;;;;;;1.43;0.87;;;16.80;99.90;;;;;;4994011;28;20468;-69
2023/10/20 13:22:38;;;;;;;0.80;0.60;;;16.90;99.90;;;;;;4993696;28;20491;-69
2023/10/20 13:25:07;;;;;;;0.90;0.67;;;16.80;99.90;;;;;;4993191;28;20916;-69
2023/10/20 13:27:34;;;;;;;1.03;0.93;;;16.70;99.90;;;;;;4993275;28;20456;-69
2023/10/20 13:30:02;;;;;;;0.90;0.73;;;16.60;99.90;;;;;;4993222;28;20476;-69
2023/10/20 13:32:28;;;;;;;1.10;0.70;;;16.50;99.90;;;;;;4993132;28;20550;-69
2023/10/20 13:34:55;;;;;;;0.83;0.70;;;16.50;99.90;;;;;;4993098;28;20486;-69
2023/10/20 13:37:22;;;;;;;0.80;0.70;;;16.40;99.90;;;;;;4993023;28;20483;-69
2023/10/20 13:39:49;;;;;;;0.80;0.70;;;16.30;99.90;;;;;;4992840;28;20457;-70
2023/10/20 13:42:17;;;;;;;0.90;0.80;;;16.20;99.90;;;;;;4993177;28;20859;-70
2023/10/20 13:44:44;;;;;;;0.87;0.70;;;16.20;99.90;;;;;;4992930;28;20460;-70
2023/10/20 13:47:11;;;;;;;1.20;0.80;;;16.10;99.90;;;;;;4992919;28;20461;-71
2023/10/20 13:49:38;;;;;;;0.97;0.87;;;16.10;99.90;;;;;;4992872;28;20472;-70
2023/10/20 13:52:05;;;;;;;0.80;0.70;;;16.10;99.90;;;;;;4993019;28;20488;-72
2023/10/20 13:54:33;;;;;;;0.90;0.70;;;16.00;99.90;;;;;;4992379;28;20466;-69
2023/10/20 13:56:59;;;;;;;0.80;0.70;;;15.90;99.90;;;;;;4992736;28;21009;-70
2023/10/20 13:59:27;;;;;;;1.00;0.80;;;15.80;99.90;;;;;;5004480;28;20464;-69
2023/10/20 14:01:54;;;;;;;0.80;0.70;;;15.70;99.90;;;;;;5012136;28;20486;-69
2023/10/20 14:04:23;;;;;;;0.90;0.60;;;15.70;99.90;;;;;;4992977;28;21285;-70
2023/10/20 14:06:51;;;;;;;0.80;0.60;;;15.60;99.90;;;;;;4992663;28;21014;-69
2023/10/20 14:09:17;;;;;;;1.00;0.73;;;15.50;99.90;;;;;;4991676;28;20472;-71
2023/10/20 14:11:45;;;;;;;0.90;0.70;;;15.40;99.90;;;;;;4992121;28;20485;-70
2023/10/20 14:14:12;;;;;;;0.80;0.70;;;15.40;99.90;;;;;;4992419;28;20465;-70
2023/10/20 14:16:40;;;;;;;0.90;0.70;;;15.30;99.90;;;;;;4992406;28;20899;-70
2023/10/20 14:19:07;;;;;;;1.73;0.70;;;15.30;99.90;;;;;;4992481;28;20501;-70
2023/10/20 14:21:34;;;;;;;0.80;0.60;;;15.20;99.90;;;;;;4992277;28;20483;-70
2023/10/20 14:24:01;;;;;;;0.80;0.60;;;15.20;99.90;;;;;;5000182;28;20962;-70
2023/10/20 14:26:29;;;;;;;0.90;0.77;;;15.10;99.90;;;;;;4992053;28;20853;-70
2023/10/20 14:28:56;;;;;;;1.03;0.90;;;15.00;99.90;;;;;;4996507;28;20863;-68
2023/10/20 14:31:23;;;;;;;1.63;1.13;;;14.90;99.90;;;;;;4997176;28;20483;-68
2023/10/20 14:33:52;;;;;;;1.73;0.83;;;14.80;99.90;;;;;;4991387;28;20458;-77
2023/10/20 14:36:19;;;;;;;1.60;0.80;;;14.70;99.90;;;;;;4991380;28;20462;-69
2023/10/20 14:38:46;;;;;;;0.80;0.70;;;14.60;99.90;;;;;;4999167;28;20498;-69
2023/10/20 14:41:13;;;;;;;0.97;0.80;;;14.50;99.90;;;;;;4992109;28;20967;-69
2023/10/20 14:43:40;;;;;;;1.00;0.80;;;14.50;99.90;;;;;;4996858;28;20465;-70
2023/10/20 14:46:08;;;;;;;1.47;0.90;;;14.40;99.90;;;;;;4991440;28;20462;-69
2023/10/20 14:48:36;;;;;;;1.20;0.90;;;14.30;99.90;;;;;;4996044;28;20462;-69
2023/10/20 14:51:08;;;;;;;0.80;0.70;;;14.30;99.90;;;;;;4994057;28;20517;-69
2023/10/20 14:53:37;;;;;;;1.50;1.03;;;14.30;99.90;;;;;;4991172;28;20520;-71
2023/10/20 14:56:05;;;;;;;1.77;0.80;;;14.20;99.90;;;;;;4991447;28;20841;-70
2023/10/20 14:58:32;;;;;;;0.80;0.60;;;14.20;99.90;;;;;;4991286;28;20489;-70
2023/10/20 15:01:00;;;;;;;3.63;1.07;;;14.20;99.90;;;;;;4990867;28;20488;-69
2023/10/20 15:03:28;;;;;;;1.27;0.90;;;14.20;99.90;;;;;;4999316;28;20966;-69
2023/10/20 15:05:57;;;;;;;0.90;0.80;;;14.10;99.90;;;;;;4991201;28;20528;-69
2023/10/20 15:08:26;;;;;;;1.30;0.73;;;14.10;99.90;;;;;;4991520;28;20472;-68
2023/10/20 15:10:53;;;;;;;1.17;0.90;;;14.10;99.90;;;;;;4991102;28;20478;-69
2023/10/20 15:13:20;;;;;;;0.90;0.70;;;14.10;99.90;;;;;;4991470;28;20894;-69
2023/10/20 15:15:47;;;;;;;1.00;0.80;;;14.00;99.90;;;;;;4990186;28;20553;-69
2023/10/20 15:18:14;;;;;;;1.00;0.87;;;14.00;99.90;;;;;;4991199;28;20516;-69
2023/10/20 15:20:41;;;;;;;1.37;1.03;;;14.00;99.90;;;;;;4990976;28;20479;-69
2023/10/20 15:23:08;;;;;;;1.17;0.70;;;13.90;99.90;;;;;;4995364;28;20893;-69
2023/10/20 15:25:38;;;;;;;1.43;0.80;;;13.80;99.90;;;;;;4994735;28;20462;-69
2023/10/20 15:28:05;;;;;;;1.00;0.87;;;13.80;99.90;;;;;;4995215;28;20461;-69
2023/10/20 15:30:32;;;;;;;0.80;0.70;;;13.80;99.90;;;;;;4994802;28;20489;-69
2023/10/20 15:32:59;;;;;;;1.00;0.90;;;13.80;99.90;;;;;;5001288;28;20460;-69
2023/10/20 15:35:26;;;;;;;1.63;0.90;;;13.80;99.90;;;;;;4994877;28;20485;-69
2023/10/20 15:37:52;;;;;;;1.60;1.20;;;13.80;99.90;;;;;;4994110;28;20496;-69
2023/10/20 15:40:19;;;;;;;1.43;0.90;;;13.80;99.90;;;;;;4994887;28;20549;-69
2023/10/20 15:42:47;;;;;;;1.00;0.80;;;13.80;99.90;;;;;;4994888;28;20472;-68
2023/10/20 15:45:14;;;;;;;1.97;1.23;;;13.80;99.90;;;;;;4994655;28;20959;-69
2023/10/20 15:47:43;;;;;;;1.30;1.10;;;13.70;99.90;;;;;;4995100;28;20843;-69
2023/10/20 15:50:12;;;;;;;0.80;0.80;;;13.70;99.90;;;;;;4995033;28;20993;-69
2023/10/20 15:52:38;;;;;;;1.40;0.90;;;13.70;99.90;;;;;;4995018;28;20813;-68
2023/10/20 15:55:07;;;;;;;1.00;0.90;;;13.70;99.90;;;;;;4994920;28;20495;-69
2023/10/20 15:57:34;;;;;;;0.90;0.80;;;13.70;99.90;;;;;;4994978;28;21051;-68
2023/10/20 16:00:02;;;;;;;0.97;0.87;;;13.70;99.90;;;;;;4994616;28;20470;-69
2023/10/20 16:02:29;;;;;;;0.80;0.70;;;13.70;99.90;;;;;;4994935;28;20486;-68
2023/10/20 16:04:56;;;;;;;1.00;0.90;;;13.70;99.90;;;;;;4994577;28;20470;-69
2023/10/20 16:07:23;;;;;;;1.23;0.80;;;13.70;99.90;;;;;;4994738;28;20524;-69
2023/10/20 16:09:51;;;;;;;1.13;0.90;;;13.60;99.90;;;;;;4996513;28;20464;-68
2023/10/20 16:12:18;;;;;;;0.93;0.80;;;13.60;99.90;;;;;;5000629;28;20492;-69
2023/10/20 16:14:45;;;;;;;1.77;1.00;;;13.60;99.90;;;;;;5003840;28;20969;-68
2023/10/20 16:17:13;;;;;;;1.40;1.00;;;13.60;99.90;;;;;;5003950;28;20466;-69
2023/10/20 16:19:40;;;;;;;1.40;1.10;;;13.50;99.90;;;;;;4994426;28;20583;-69
2023/10/20 16:22:07;;;;;;;1.30;0.90;;;13.50;99.90;;;;;;4993929;28;20481;-69
2023/10/20 16:24:34;;;;;;;1.53;0.80;;;13.50;99.90;;;;;;4993638;28;20913;-69
2023/10/20 16:27:01;;;;;;;0.80;0.70;;;13.50;99.90;;;;;;5005036;28;20495;-69
2023/10/20 16:29:27;;;;;;;1.40;0.90;;;13.50;99.90;;;;;;5000148;28;20473;-69
2023/10/20 16:31:54;;;;;;;1.83;1.17;;;13.40;99.90;;;;;;5003891;28;20495;-69
2023/10/20 16:34:23;;;;;;;1.10;1.00;;;13.40;99.90;;;;;;4999376;28;20990;-69
2023/10/20 16:36:50;;;;;;;1.20;1.00;;;13.40;99.90;;;;;;4998203;28;20545;-69
2023/10/20 16:39:17;;;;;;;1.30;1.20;;;13.40;99.90;;;;;;5007433;28;20484;-69
2023/10/20 16:41:44;;;;;;;1.30;1.20;;;13.40;99.90;;;;;;4998013;28;20485;-69
2023/10/20 16:44:12;;;;;;;4.03;1.20;;;13.40;99.90;;;;;;5004104;28;20467;-69